createdAt,value
2022-11-03T00:01:51.110Z,13.20
2022-11-03T00:04:20.040Z,13.10
2022-11-03T00:06:49.437Z,13.20
2022-11-03T00:09:17.800Z,13.10
2022-11-03T00:11:46.471Z,13.10
2022-11-03T00:14:17.120Z,13.20
2022-11-03T00:16:44.634Z,13.20
2022-11-03T00:19:12.012Z,13.20
2022-11-03T00:21:38.831Z,13.10
2022-11-03T00:24:06.572Z,13.30
2022-11-03T00:26:35.167Z,13.30
2022-11-03T00:29:10.602Z,13.20
2022-11-03T00:31:39.778Z,13.10
2022-11-03T00:34:07.461Z,13.20
2022-11-03T00:36:43.275Z,13.10
2022-11-03T00:39:10.978Z,13.00
2022-11-03T00:41:38.008Z,12.90
2022-11-03T00:44:04.913Z,12.80
2022-11-03T00:46:35.083Z,12.80
2022-11-03T00:49:03.857Z,12.80
2022-11-03T00:51:30.793Z,12.80
2022-11-03T00:54:00.552Z,12.90
2022-11-03T00:56:33.196Z,13.10
2022-11-03T00:59:01.389Z,13.10
2022-11-03T01:01:36.273Z,13.10
2022-11-03T01:04:26.665Z,13.00
2022-11-03T01:06:55.766Z,13.10
2022-11-03T01:09:22.650Z,13.00
2022-11-03T01:12:00.029Z,13.00
2022-11-03T01:14:42.086Z,13.00
2022-11-03T01:17:12.325Z,12.90
2022-11-03T01:19:39.195Z,12.80
2022-11-03T01:22:09.702Z,12.70
2022-11-03T01:24:40.033Z,12.60
2022-11-03T01:27:06.902Z,12.60
2022-11-03T01:29:33.604Z,12.60
2022-11-03T01:32:00.344Z,12.60
2022-11-03T01:34:27.297Z,12.50
2022-11-03T01:36:54.039Z,12.50
2022-11-03T01:39:20.843Z,12.50
2022-11-03T01:41:50.519Z,12.50
2022-11-03T01:44:17.636Z,12.50
2022-11-03T01:46:49.883Z,12.50
2022-11-03T01:49:38.131Z,12.60
2022-11-03T01:52:34.130Z,12.60
2022-11-03T01:55:07.572Z,12.60
2022-11-03T01:57:41.274Z,12.60
2022-11-03T02:00:09.501Z,12.60
2022-11-03T02:02:36.644Z,12.50
2022-11-03T02:05:05.986Z,12.50
2022-11-03T02:07:47.769Z,12.50
2022-11-03T02:10:14.653Z,12.50
2022-11-03T02:12:42.189Z,12.50
2022-11-03T02:15:12.476Z,12.40
2022-11-03T02:17:42.385Z,12.50
2022-11-03T02:20:17.531Z,12.40
2022-11-03T02:22:52.832Z,12.40
2022-11-03T02:25:35.080Z,12.20
2022-11-03T02:28:03.854Z,12.20
2022-11-03T02:30:39.874Z,12.30
2022-11-03T02:33:25.935Z,12.30
2022-11-03T02:36:15.759Z,12.20
2022-11-03T02:38:56.702Z,12.10
2022-11-03T02:41:24.888Z,12.00
2022-11-03T02:43:54.294Z,12.00
2022-11-03T02:46:21.698Z,12.10
2022-11-03T02:48:48.999Z,12.10
2022-11-03T02:51:15.866Z,12.20
2022-11-03T02:54:07.357Z,12.10
2022-11-03T02:56:45.689Z,12.10
2022-11-03T02:59:18.054Z,12.00
2022-11-03T03:01:54.504Z,12.00
2022-11-03T03:04:29.641Z,12.00
2022-11-03T03:07:10.190Z,11.90
2022-11-03T03:09:50.909Z,11.80
2022-11-03T03:12:19.620Z,11.80
2022-11-03T03:14:48.623Z,11.70
2022-11-03T03:17:50.799Z,11.70
2022-11-03T03:20:37.634Z,11.80
2022-11-03T03:23:17.640Z,11.60
2022-11-03T03:25:54.829Z,11.60
2022-11-03T03:28:31.793Z,11.50
2022-11-03T03:31:01.903Z,11.60
2022-11-03T03:33:30.654Z,11.60
2022-11-03T03:35:59.632Z,11.60
2022-11-03T03:38:33.455Z,11.60
2022-11-03T03:41:05.514Z,11.60
2022-11-03T03:43:35.642Z,11.70
2022-11-03T03:46:10.220Z,11.70
2022-11-03T03:48:37.437Z,11.60
2022-11-03T03:51:04.754Z,11.50
2022-11-03T03:53:31.653Z,11.50
2022-11-03T03:55:59.368Z,11.40
2022-11-03T03:58:26.113Z,11.30
2022-11-03T04:00:52.936Z,11.30
2022-11-03T04:03:25.259Z,11.30
2022-11-03T04:05:54.036Z,11.30
2022-11-03T04:08:20.825Z,11.40
2022-11-03T04:11:06.655Z,11.40
2022-11-03T04:13:53.536Z,11.50
2022-11-03T04:16:39.113Z,11.30
2022-11-03T04:19:24.530Z,11.20
2022-11-03T04:22:09.968Z,11.20
2022-11-03T04:24:37.140Z,11.30
2022-11-03T04:27:22.840Z,11.20
2022-11-03T04:29:50.050Z,11.20
2022-11-03T04:32:17.910Z,11.30
2022-11-03T04:34:48.272Z,11.30
2022-11-03T04:37:16.825Z,11.40
2022-11-03T04:42:21.011Z,11.10
2022-11-03T04:44:49.091Z,11.20
2022-11-03T04:47:17.980Z,11.30
2022-11-03T04:49:48.203Z,11.30
2022-11-03T04:52:21.376Z,11.40
2022-11-03T04:54:50.843Z,11.30
2022-11-03T04:57:18.440Z,11.30
2022-11-03T04:59:50.848Z,11.30
2022-11-03T05:02:21.009Z,11.30
2022-11-03T05:04:48.208Z,11.30
2022-11-03T05:07:30.996Z,11.20
2022-11-03T05:09:58.031Z,11.00
2022-11-03T05:12:25.588Z,11.00
2022-11-03T05:14:58.087Z,11.00
2022-11-03T05:17:27.929Z,11.00
2022-11-03T05:20:00.256Z,10.90
2022-11-03T05:22:33.986Z,10.90
2022-11-03T05:25:32.701Z,11.00
2022-11-03T05:27:59.465Z,10.90
2022-11-03T05:30:26.255Z,11.10
2022-11-03T05:32:53.362Z,11.10
2022-11-03T05:35:23.051Z,11.10
2022-11-03T05:37:51.046Z,11.00
2022-11-03T05:40:27.307Z,10.90
2022-11-03T05:43:01.082Z,10.80
2022-11-03T05:45:33.984Z,10.90
2022-11-03T05:48:03.624Z,10.80
2022-11-03T05:50:35.052Z,10.90
2022-11-03T05:53:27.872Z,11.00
2022-11-03T05:55:56.983Z,11.00
2022-11-03T05:58:26.337Z,10.90
2022-11-03T06:00:53.545Z,10.90
2022-11-03T06:03:25.356Z,10.90
2022-11-03T06:05:53.423Z,10.80
2022-11-03T06:08:35.260Z,10.90
2022-11-03T06:11:04.765Z,10.90
2022-11-03T06:13:37.726Z,11.00
2022-11-03T06:16:15.494Z,11.10
2022-11-03T06:18:42.785Z,11.30
2022-11-03T06:21:16.439Z,11.30
2022-11-03T06:23:43.720Z,11.30
2022-11-03T06:26:24.186Z,11.30
2022-11-03T06:28:51.732Z,11.40
2022-11-03T06:31:23.858Z,11.60
2022-11-03T06:33:52.534Z,11.70
2022-11-03T06:36:22.553Z,11.70
2022-11-03T06:38:54.354Z,11.60
2022-11-03T06:41:25.561Z,11.70
2022-11-03T06:43:52.881Z,11.80
2022-11-03T06:46:24.940Z,11.80
2022-11-03T06:49:00.473Z,11.80
2022-11-03T06:51:31.479Z,11.90
2022-11-03T06:54:00.294Z,12.00
2022-11-03T06:56:31.688Z,12.00
2022-11-03T06:58:58.876Z,12.10
2022-11-03T07:01:36.011Z,12.20
2022-11-03T07:04:12.488Z,12.10
2022-11-03T07:06:39.218Z,12.20
2022-11-03T07:09:12.098Z,12.20
2022-11-03T07:11:46.273Z,12.10
2022-11-03T07:14:17.837Z,12.30
2022-11-03T07:16:50.746Z,12.40
2022-11-03T07:19:25.089Z,12.50
2022-11-03T07:21:53.586Z,12.70
2022-11-03T07:24:41.061Z,12.70
2022-11-03T07:27:17.081Z,12.90
2022-11-03T07:29:44.777Z,13.00
2022-11-03T07:32:22.708Z,13.20
2022-11-03T07:34:59.489Z,13.20
2022-11-03T07:37:26.587Z,13.30
2022-11-03T07:39:54.119Z,13.40
2022-11-03T07:42:24.433Z,13.50
2022-11-03T07:44:52.786Z,13.70
2022-11-03T07:47:21.936Z,13.80
2022-11-03T07:49:48.958Z,14.00
2022-11-03T07:52:19.968Z,14.10
2022-11-03T07:54:47.233Z,14.30
2022-11-03T07:57:21.448Z,14.40
2022-11-03T07:59:51.979Z,14.50
2022-11-03T08:02:56.295Z,14.60
2022-11-03T08:05:23.039Z,14.90
2022-11-03T08:07:49.787Z,15.10
2022-11-03T08:10:16.676Z,15.30
2022-11-03T08:12:43.814Z,15.40
2022-11-03T08:15:11.582Z,15.60
2022-11-03T08:17:38.335Z,15.80
2022-11-03T08:20:05.413Z,16.00
2022-11-03T08:22:32.129Z,16.20
2022-11-03T08:24:59.297Z,16.30
2022-11-03T08:27:27.637Z,16.50
2022-11-03T08:29:54.457Z,16.80
2022-11-03T08:32:21.281Z,17.00
2022-11-03T08:34:48.015Z,17.40
2022-11-03T08:37:14.734Z,17.50
2022-11-03T08:39:41.633Z,17.70
2022-11-03T08:42:08.793Z,17.90
2022-11-03T08:44:35.530Z,18.10
2022-11-03T08:47:02.390Z,18.30
2022-11-03T08:49:29.572Z,18.50
2022-11-03T08:51:56.743Z,18.80
2022-11-03T08:54:23.525Z,19.10
2022-11-03T08:56:50.336Z,19.30
2022-11-03T08:59:18.222Z,19.30
2022-11-03T09:01:45.215Z,19.50
2022-11-03T09:04:12.620Z,19.70
2022-11-03T09:06:41.189Z,19.80
2022-11-03T09:11:54.785Z,20.50
2022-11-03T09:14:21.730Z,20.90
2022-11-03T09:16:48.484Z,21.30
2022-11-03T09:19:15.238Z,21.60
2022-11-03T09:21:42.404Z,21.90
2022-11-03T09:24:09.282Z,22.40
2022-11-03T09:26:36.455Z,22.90
2022-11-03T09:29:03.221Z,23.10
2022-11-03T09:31:30.091Z,23.50
2022-11-03T09:33:56.951Z,23.90
2022-11-03T09:36:24.111Z,24.60
2022-11-03T09:38:51.283Z,24.90
2022-11-03T09:41:26.311Z,24.60
2022-11-03T09:43:56.780Z,23.90
2022-11-03T09:46:24.463Z,23.30
2022-11-03T09:48:51.998Z,23.20
2022-11-03T09:51:21.415Z,22.90
2022-11-03T09:53:48.844Z,22.90
2022-11-03T09:56:22.236Z,22.80
2022-11-03T09:58:54.045Z,22.80
2022-11-03T10:01:22.644Z,22.70
2022-11-03T10:03:49.677Z,22.50
2022-11-03T10:06:17.608Z,22.40
2022-11-03T10:08:47.508Z,22.30
2022-11-03T10:11:15.684Z,22.20
2022-11-03T10:13:47.606Z,22.00
2022-11-03T10:16:20.424Z,21.80
2022-11-03T10:18:47.693Z,21.80
2022-11-03T10:21:28.455Z,21.70
2022-11-03T10:23:55.266Z,21.70
2022-11-03T10:26:22.531Z,21.80
2022-11-03T10:29:08.966Z,21.90
2022-11-03T10:31:40.777Z,22.20
2022-11-03T10:34:27.143Z,22.40
2022-11-03T10:37:13.014Z,22.60
2022-11-03T10:39:40.278Z,23.20
2022-11-03T10:42:35.946Z,23.40
2022-11-03T10:45:20.326Z,23.50
2022-11-03T10:48:10.304Z,23.70
2022-11-03T10:50:40.142Z,23.60
2022-11-03T10:53:19.203Z,23.80
2022-11-03T10:55:46.234Z,24.10
2022-11-03T10:58:13.467Z,24.80
2022-11-03T11:00:43.328Z,25.20
2022-11-03T11:03:16.373Z,25.20
2022-11-03T11:05:48.301Z,26.30
2022-11-03T11:08:21.256Z,28.00
2022-11-03T11:10:48.173Z,29.70
2022-11-03T11:13:18.714Z,30.70
2022-11-03T11:16:07.122Z,31.50
2022-11-03T11:18:33.956Z,32.20
2022-11-03T11:21:20.213Z,33.40
2022-11-03T11:23:48.467Z,34.10
2022-11-03T11:26:15.183Z,34.90
2022-11-03T11:28:44.242Z,35.70
2022-11-03T11:31:33.009Z,36.40
2022-11-03T11:34:21.418Z,36.30
2022-11-03T11:37:10.857Z,37.00
2022-11-03T11:39:44.164Z,37.50
2022-11-03T11:42:17.419Z,38.00
2022-11-03T11:44:45.909Z,38.20
2022-11-03T11:47:27.905Z,38.20
2022-11-03T11:50:02.707Z,38.60
2022-11-03T11:52:30.369Z,38.40
2022-11-03T11:54:57.164Z,38.10
2022-11-03T11:57:25.116Z,37.90
2022-11-03T11:59:52.171Z,38.00
2022-11-03T12:02:23.709Z,38.10
2022-11-03T12:05:03.739Z,38.20
2022-11-03T12:07:35.080Z,38.60
2022-11-03T12:10:19.265Z,38.40
2022-11-03T12:12:46.586Z,38.70
2022-11-03T12:15:48.369Z,38.80
2022-11-03T12:18:38.894Z,38.70
2022-11-03T12:21:30.804Z,39.00
2022-11-03T12:23:57.543Z,38.90
2022-11-03T12:26:32.821Z,39.20
2022-11-03T12:28:59.645Z,39.30
2022-11-03T12:31:26.388Z,39.00
2022-11-03T12:33:53.133Z,39.20
2022-11-03T12:36:20.306Z,38.80
2022-11-03T12:38:47.056Z,38.50
2022-11-03T12:41:24.424Z,38.20
2022-11-03T12:43:53.104Z,38.20
2022-11-03T12:46:21.065Z,38.20
2022-11-03T12:48:49.125Z,38.10
2022-11-03T12:51:17.153Z,38.50
2022-11-03T12:53:45.683Z,38.70
2022-11-03T12:56:13.661Z,39.10
2022-11-03T12:58:41.023Z,39.20
2022-11-03T13:01:08.614Z,39.10
2022-11-03T13:03:36.301Z,39.20
2022-11-03T13:06:05.527Z,39.30
2022-11-03T13:08:32.406Z,39.40
2022-11-03T13:10:59.863Z,39.20
2022-11-03T13:13:27.145Z,39.30
2022-11-03T13:15:54.346Z,39.20
2022-11-03T13:18:22.644Z,38.80
2022-11-03T13:20:49.363Z,39.00
2022-11-03T13:23:18.799Z,38.90
2022-11-03T13:25:48.889Z,39.10
2022-11-03T13:28:16.060Z,38.70
2022-11-03T13:30:42.793Z,37.70
2022-11-03T13:33:10.451Z,36.30
2022-11-03T13:35:37.956Z,34.80
2022-11-03T13:38:04.722Z,34.90
2022-11-03T13:43:18.204Z,34.60
2022-11-03T13:45:45.321Z,34.80
2022-11-03T13:51:00.260Z,33.70
2022-11-03T13:56:20.914Z,31.70
2022-11-03T14:01:36.840Z,30.00
2022-11-03T14:06:51.190Z,28.60
2022-11-03T14:09:17.981Z,28.20
2022-11-03T14:12:03.541Z,29.00
2022-11-03T14:14:30.297Z,30.10
2022-11-03T14:16:57.552Z,30.20
2022-11-03T14:19:28.789Z,30.20
2022-11-03T14:22:01.003Z,29.90
2022-11-03T14:24:28.108Z,29.40
2022-11-03T14:26:54.902Z,28.80
2022-11-03T14:29:21.802Z,28.20
2022-11-03T14:31:49.068Z,27.20
2022-11-03T14:34:15.899Z,26.60
2022-11-03T14:36:42.731Z,26.10
2022-11-03T14:39:09.681Z,25.60
2022-11-03T14:41:54.888Z,25.20
2022-11-03T14:44:21.632Z,24.90
2022-11-03T14:46:48.399Z,25.00
2022-11-03T14:49:15.131Z,25.70
2022-11-03T14:51:41.977Z,26.40
2022-11-03T14:54:08.794Z,27.10
2022-11-03T14:56:35.532Z,27.30
2022-11-03T14:59:02.307Z,27.40
2022-11-03T15:01:29.237Z,27.70
2022-11-03T15:03:56.006Z,27.60
2022-11-03T15:06:22.818Z,27.20
2022-11-03T15:08:55.078Z,26.90
2022-11-03T15:11:23.054Z,26.50
2022-11-03T15:13:52.259Z,25.90
2022-11-03T15:16:19.436Z,25.20
2022-11-03T15:18:46.796Z,24.40
2022-11-03T15:21:13.863Z,23.90
2022-11-03T15:26:27.401Z,22.90
2022-11-03T15:28:54.193Z,22.50
2022-11-03T15:31:21.002Z,22.20
2022-11-03T15:33:48.150Z,21.90
2022-11-03T15:36:15.001Z,21.60
2022-11-03T15:38:41.829Z,21.40
2022-11-03T15:41:17.484Z,21.10
2022-11-03T15:43:46.440Z,20.90
2022-11-03T15:46:14.199Z,21.90
2022-11-03T15:48:42.189Z,21.90
2022-11-03T15:51:09.490Z,21.60
2022-11-03T15:53:36.418Z,21.10
2022-11-03T15:56:03.325Z,20.70
2022-11-03T15:58:33.874Z,20.40
2022-11-03T16:01:02.429Z,20.10
2022-11-03T16:03:30.011Z,19.90
2022-11-03T16:05:56.848Z,19.70
2022-11-03T16:08:23.693Z,19.50
2022-11-03T16:10:54.796Z,19.40
2022-11-03T16:13:25.076Z,19.40
2022-11-03T16:15:53.192Z,19.30
2022-11-03T16:18:20.429Z,19.20
2022-11-03T16:20:47.151Z,19.10
2022-11-03T16:23:13.979Z,18.90
2022-11-03T16:25:41.147Z,18.80
2022-11-03T16:28:08.609Z,18.70
2022-11-03T16:30:35.787Z,18.60
2022-11-03T16:33:02.557Z,18.60
2022-11-03T16:35:29.805Z,18.50
2022-11-03T16:37:57.105Z,18.30
2022-11-03T16:40:24.281Z,18.30
2022-11-03T16:42:51.488Z,18.20
2022-11-03T16:45:23.458Z,18.20
2022-11-03T16:47:50.958Z,18.10
2022-11-03T16:50:18.889Z,18.00
2022-11-03T16:52:47.443Z,18.00
2022-11-03T16:55:18.789Z,18.00
2022-11-03T16:57:46.131Z,17.90
2022-11-03T17:00:16.566Z,17.90
2022-11-03T17:02:44.333Z,17.80
2022-11-03T17:05:12.555Z,17.70
2022-11-03T17:07:39.345Z,17.70
2022-11-03T17:10:07.730Z,17.60
2022-11-03T17:12:34.489Z,17.50
2022-11-03T17:15:01.283Z,17.40
2022-11-03T17:17:28.083Z,17.30
2022-11-03T17:19:54.901Z,17.30
2022-11-03T17:22:22.344Z,17.20
2022-11-03T17:24:49.459Z,17.20
2022-11-03T17:27:30.070Z,17.10
2022-11-03T17:30:04.040Z,17.00
2022-11-03T17:32:35.930Z,16.80
2022-11-03T17:35:03.775Z,16.80
2022-11-03T17:37:30.522Z,16.80
2022-11-03T17:39:57.415Z,16.70
2022-11-03T17:42:26.228Z,16.60
2022-11-03T17:44:59.400Z,16.60
2022-11-03T17:47:26.537Z,16.50
2022-11-03T17:49:53.277Z,16.50
2022-11-03T17:52:28.303Z,16.50
2022-11-03T17:54:57.540Z,16.40
2022-11-03T17:57:25.985Z,16.40
2022-11-03T17:59:55.383Z,16.30
2022-11-03T18:02:27.965Z,16.30
2022-11-03T18:05:44.472Z,16.30
2022-11-03T18:08:12.330Z,16.30
2022-11-03T18:10:42.662Z,16.30
2022-11-03T18:13:31.581Z,16.30
2022-11-03T18:16:11.401Z,16.30
2022-11-03T18:18:41.930Z,16.20
2022-11-03T18:21:19.850Z,16.20
2022-11-03T18:23:47.420Z,16.10
2022-11-03T18:26:20.247Z,16.10
2022-11-03T18:28:49.186Z,16.10
2022-11-03T18:31:33.886Z,16.00
2022-11-03T18:34:06.760Z,15.90
2022-11-03T18:36:34.322Z,15.90
2022-11-03T18:39:02.432Z,15.90
2022-11-03T18:41:36.114Z,15.80
2022-11-03T18:44:10.908Z,15.80
2022-11-03T18:46:38.233Z,15.70
2022-11-03T18:49:04.992Z,15.60
2022-11-03T18:51:32.333Z,15.50
2022-11-03T18:53:59.929Z,15.50
2022-11-03T18:56:27.795Z,15.50
2022-11-03T18:58:56.056Z,15.50
2022-11-03T19:01:26.067Z,15.50
2022-11-03T19:03:53.733Z,15.40
2022-11-03T19:06:21.145Z,15.30
2022-11-03T19:08:48.355Z,15.20
2022-11-03T19:11:15.362Z,15.10
2022-11-03T19:13:47.582Z,15.00
2022-11-03T19:16:20.430Z,15.00
2022-11-03T19:18:48.028Z,15.00
2022-11-03T19:21:20.973Z,14.90
2022-11-03T19:23:49.030Z,15.00
2022-11-03T19:26:36.060Z,15.00
2022-11-03T19:29:09.186Z,15.00
2022-11-03T19:31:39.149Z,15.00
2022-11-03T19:34:08.639Z,14.90
2022-11-03T19:36:36.133Z,14.90
2022-11-03T19:39:03.029Z,14.80
2022-11-03T19:41:48.390Z,14.70
2022-11-03T19:44:15.091Z,14.80
2022-11-03T19:46:42.199Z,14.70
2022-11-03T19:49:14.050Z,14.70
2022-11-03T19:51:41.082Z,14.70
2022-11-03T19:54:15.455Z,14.60
2022-11-03T19:56:42.222Z,14.60
2022-11-03T19:59:12.322Z,14.40
2022-11-03T20:01:39.252Z,14.40
2022-11-03T20:04:06.633Z,14.40
2022-11-03T20:06:35.772Z,14.30
2022-11-03T20:09:08.520Z,14.20
2022-11-03T20:11:36.674Z,14.30
2022-11-03T20:14:04.080Z,14.20
2022-11-03T20:16:31.267Z,14.10
2022-11-03T20:18:58.387Z,14.10
2022-11-03T20:21:27.829Z,14.00
2022-11-03T20:23:59.982Z,13.90
2022-11-03T20:26:28.054Z,13.80
2022-11-03T20:28:57.902Z,13.70
2022-11-03T20:31:25.246Z,13.70
2022-11-03T20:33:51.973Z,13.70
2022-11-03T20:36:20.405Z,13.80
2022-11-03T20:38:59.256Z,13.80
2022-11-03T20:41:30.567Z,13.90
2022-11-03T20:43:57.697Z,13.90
2022-11-03T20:46:32.768Z,13.90
2022-11-03T20:48:59.953Z,13.80
2022-11-03T20:51:31.376Z,13.70
2022-11-03T20:53:59.473Z,13.70
2022-11-03T20:56:28.501Z,13.70
2022-11-03T20:58:56.104Z,13.70
2022-11-03T21:01:30.703Z,13.60
2022-11-03T21:04:00.313Z,13.60
2022-11-03T21:06:29.830Z,13.50
2022-11-03T21:08:57.109Z,13.60
2022-11-03T21:11:30.000Z,13.50
2022-11-03T21:14:02.329Z,13.50
2022-11-03T21:16:48.979Z,13.60
2022-11-03T21:19:46.218Z,13.50
2022-11-03T21:22:56.909Z,13.50
2022-11-03T21:25:24.831Z,13.50
2022-11-03T21:28:05.073Z,13.50
2022-11-03T21:30:32.028Z,13.40
2022-11-03T21:32:58.741Z,13.40
2022-11-03T21:35:26.021Z,13.30
2022-11-03T21:37:52.882Z,13.30
2022-11-03T21:40:19.652Z,13.30
2022-11-03T21:43:05.510Z,13.30
2022-11-03T21:45:32.867Z,13.20
2022-11-03T21:48:18.877Z,13.20
2022-11-03T21:50:46.219Z,13.20
2022-11-03T21:53:13.179Z,13.20
2022-11-03T21:55:40.396Z,13.20
2022-11-03T21:58:07.568Z,13.20
2022-11-03T22:00:35.036Z,13.20
2022-11-03T22:03:02.196Z,13.20
2022-11-03T22:05:29.453Z,13.20
2022-11-03T22:07:56.293Z,13.30
2022-11-03T22:10:23.118Z,13.20
2022-11-03T22:12:49.972Z,13.20
2022-11-03T22:15:35.173Z,13.10
2022-11-03T22:18:03.151Z,13.10
2022-11-03T22:20:48.543Z,13.00
2022-11-03T22:23:34.597Z,13.00
2022-11-03T22:26:19.913Z,12.90
2022-11-03T22:29:07.159Z,12.80
2022-11-03T22:31:42.696Z,12.80
2022-11-03T22:34:28.518Z,12.80
2022-11-03T22:36:55.370Z,12.80
2022-11-03T22:39:40.454Z,12.80
2022-11-03T22:42:25.901Z,12.80
2022-11-03T22:45:11.668Z,12.70
2022-11-03T22:47:38.522Z,12.70
2022-11-03T22:50:05.538Z,12.60
2022-11-03T22:52:32.265Z,12.60
2022-11-03T22:54:59.023Z,12.60
2022-11-03T22:57:25.784Z,12.60
2022-11-03T22:59:52.570Z,12.60
2022-11-03T23:02:19.446Z,12.60
2022-11-03T23:04:46.867Z,12.60
2022-11-03T23:07:13.662Z,12.50
2022-11-03T23:09:40.982Z,12.40
2022-11-03T23:12:07.832Z,12.30
2022-11-03T23:14:52.972Z,12.20
2022-11-03T23:17:19.746Z,12.30
2022-11-03T23:20:04.956Z,12.40
2022-11-03T23:22:31.770Z,12.40
2022-11-03T23:25:01.625Z,12.30
2022-11-03T23:27:29.088Z,12.30
2022-11-03T23:29:55.906Z,12.30
2022-11-03T23:32:23.062Z,12.40
2022-11-03T23:34:53.116Z,12.40
2022-11-03T23:37:20.312Z,12.30
2022-11-03T23:39:47.048Z,12.30
2022-11-03T23:42:13.760Z,12.40
2022-11-03T23:44:59.028Z,12.40
2022-11-03T23:47:44.347Z,12.30
2022-11-03T23:50:11.434Z,12.30
2022-11-03T23:52:38.224Z,12.30
2022-11-03T23:55:05.837Z,12.30
2022-11-03T23:57:51.593Z,12.30
